sensor_id;sensor_type;location;lat;lon;timestamp;pressure;altitude;pressure_sealevel;temperature;humidity
58757;BME280;44527;47.460;19.016;2023-12-20T01:50:46;100320.91;;;0.10;100.00
58757;BME280;44527;47.460;19.016;2023-12-20T01:53:49;100320.50;;;-0.11;100.00
58757;BME280;44527;47.460;19.016;2023-12-20T01:56:52;100308.72;;;-0.22;100.00
58757;BME280;44527;47.460;19.016;2023-12-20T01:59:55;100297.53;;;-0.21;100.00
58757;BME280;44527;47.460;19.016;2023-12-20T02:03:01;100293.31;;;-0.26;100.00
58757;BME280;44527;47.460;19.016;2023-12-20T02:06:05;100279.47;;;-0.21;100.00
58757;BME280;44527;47.460;19.016;2023-12-20T02:09:08;100274.25;;;-0.18;100.00
58757;BME280;44527;47.460;19.016;2023-12-20T02:12:11;100263.69;;;-0.08;100.00
58757;BME280;44527;47.460;19.016;2023-12-20T02:15:14;100264.13;;;-0.28;100.00
58757;BME280;44527;47.460;19.016;2023-12-20T02:18:17;100275.66;;;-0.42;100.00
58757;BME280;44527;47.460;19.016;2023-12-20T02:21:33;100268.97;;;-0.51;100.00
58757;BME280;44527;47.460;19.016;2023-12-20T02:24:39;100257.87;;;-0.55;100.00
58757;BME280;44527;47.460;19.016;2023-12-20T02:27:42;100264.63;;;-0.49;100.00
58757;BME280;44527;47.460;19.016;2023-12-20T02:30:46;100241.19;;;-0.40;100.00
58757;BME280;44527;47.460;19.016;2023-12-20T02:33:49;100245.88;;;-0.18;100.00
58757;BME280;44527;47.460;19.016;2023-12-20T02:36:52;100241.28;;;-0.06;100.00
58757;BME280;44527;47.460;19.016;2023-12-20T02:39:55;100254.13;;;-0.04;100.00
58757;BME280;44527;47.460;19.016;2023-12-20T02:42:58;100245.47;;;0.00;100.00
58757;BME280;44527;47.460;19.016;2023-12-20T02:46:01;100235.06;;;0.03;100.00
58757;BME280;44527;47.460;19.016;2023-12-20T02:49:04;100236.78;;;0.03;100.00
58757;BME280;44527;47.460;19.016;2023-12-20T02:52:07;100231.75;;;-0.02;100.00
58757;BME280;44527;47.460;19.016;2023-12-20T02:55:12;100221.34;;;0.01;100.00
58757;BME280;44527;47.460;19.016;2023-12-20T02:58:15;100214.50;;;0.00;100.00
58757;BME280;44527;47.460;19.016;2023-12-20T03:01:18;100212.75;;;0.01;100.00
58757;BME280;44527;47.460;19.016;2023-12-20T03:04:20;100206.13;;;0.25;100.00
58757;BME280;44527;47.460;19.016;2023-12-20T03:07:24;100208.62;;;0.28;100.00
58757;BME280;44527;47.460;19.016;2023-12-20T03:10:26;100205.91;;;0.32;100.00
58757;BME280;44527;47.460;19.016;2023-12-20T03:13:31;100204.19;;;0.33;100.00
58757;BME280;44527;47.460;19.016;2023-12-20T03:16:33;100204.94;;;0.36;100.00
58757;BME280;44527;47.460;19.016;2023-12-20T03:19:38;100206.28;;;0.51;100.00
58757;BME280;44527;47.460;19.016;2023-12-20T03:22:42;100204.00;;;0.40;100.00
58757;BME280;44527;47.460;19.016;2023-12-20T03:25:44;100212.69;;;0.36;100.00
58757;BME280;44527;47.460;19.016;2023-12-20T03:28:49;100210.97;;;0.37;100.00
58757;BME280;44527;47.460;19.016;2023-12-20T03:31:52;100216.63;;;0.18;100.00
58757;BME280;44527;47.460;19.016;2023-12-20T03:34:54;100204.88;;;0.05;100.00
58757;BME280;44527;47.460;19.016;2023-12-20T03:37:58;100212.84;;;0.30;100.00
58757;BME280;44527;47.460;19.016;2023-12-20T03:41:02;100211.69;;;0.09;100.00
58757;BME280;44527;47.460;19.016;2023-12-20T03:44:06;100214.59;;;0.30;100.00
58757;BME280;44527;47.460;19.016;2023-12-20T03:47:11;100212.81;;;0.32;100.00
58757;BME280;44527;47.460;19.016;2023-12-20T03:50:15;100215.19;;;0.39;100.00
58757;BME280;44527;47.460;19.016;2023-12-20T03:53:18;100212.97;;;0.26;100.00
58757;BME280;44527;47.460;19.016;2023-12-20T03:56:21;100212.28;;;0.19;100.00
58757;BME280;44527;47.460;19.016;2023-12-20T03:59:23;100201.75;;;0.27;100.00
58757;BME280;44527;47.460;19.016;2023-12-20T04:02:26;100210.25;;;0.32;100.00
58757;BME280;44527;47.460;19.016;2023-12-20T04:05:30;100200.91;;;0.26;100.00
58757;BME280;44527;47.460;19.016;2023-12-20T04:08:33;100200.69;;;0.35;100.00
58757;BME280;44527;47.460;19.016;2023-12-20T04:11:36;100188.00;;;0.26;100.00
58757;BME280;44527;47.460;19.016;2023-12-20T04:14:39;100185.09;;;0.06;100.00
58757;BME280;44527;47.460;19.016;2023-12-20T04:17:42;100188.09;;;-0.11;100.00
58757;BME280;44527;47.460;19.016;2023-12-20T04:20:45;100188.41;;;-0.24;100.00
58757;BME280;44527;47.460;19.016;2023-12-20T04:23:48;100184.97;;;-0.24;100.00
58757;BME280;44527;47.460;19.016;2023-12-20T04:26:53;100181.53;;;-0.25;100.00
58757;BME280;44527;47.460;19.016;2023-12-20T04:29:57;100168.84;;;-0.34;100.00
58757;BME280;44527;47.460;19.016;2023-12-20T04:33:00;100162.69;;;-0.28;100.00
58757;BME280;44527;47.460;19.016;2023-12-20T04:36:03;100160.06;;;-0.25;100.00
58757;BME280;44527;47.460;19.016;2023-12-20T04:39:06;100163.38;;;-0.20;100.00
58757;BME280;44527;47.460;19.016;2023-12-20T04:42:09;100155.13;;;-0.34;100.00
58757;BME280;44527;47.460;19.016;2023-12-20T04:45:12;100150.78;;;-0.32;100.00
58757;BME280;44527;47.460;19.016;2023-12-20T04:48:18;100140.25;;;-0.25;100.00
58757;BME280;44527;47.460;19.016;2023-12-20T04:51:24;100146.09;;;-0.16;100.00
58757;BME280;44527;47.460;19.016;2023-12-20T04:54:39;100147.44;;;-0.03;100.00
58757;BME280;44527;47.460;19.016;2023-12-20T04:57:46;100141.00;;;-0.19;100.00
58757;BME280;44527;47.460;19.016;2023-12-20T05:00:53;100134.94;;;-0.18;100.00
58757;BME280;44527;47.460;19.016;2023-12-20T05:03:56;100116.03;;;-0.17;100.00
58757;BME280;44527;47.460;19.016;2023-12-20T05:06:59;100107.38;;;-0.15;100.00
58757;BME280;44527;47.460;19.016;2023-12-20T05:10:03;100110.88;;;-0.17;100.00
58757;BME280;44527;47.460;19.016;2023-12-20T05:13:07;100096.00;;;-0.08;100.00
58757;BME280;44527;47.460;19.016;2023-12-20T05:16:10;100101.06;;;-0.05;100.00
58757;BME280;44527;47.460;19.016;2023-12-20T05:19:13;100100.91;;;0.02;100.00
58757;BME280;44527;47.460;19.016;2023-12-20T05:22:16;100098.91;;;0.11;100.00
58757;BME280;44527;47.460;19.016;2023-12-20T05:25:20;100089.50;;;0.10;100.00
58757;BME280;44527;47.460;19.016;2023-12-20T05:28:23;100089.34;;;0.15;100.00
58757;BME280;44527;47.460;19.016;2023-12-20T05:31:27;100090.34;;;0.11;100.00
58757;BME280;44527;47.460;19.016;2023-12-20T05:34:31;100104.63;;;-0.09;100.00
58757;BME280;44527;47.460;19.016;2023-12-20T05:37:35;100125.88;;;0.01;100.00
58757;BME280;44527;47.460;19.016;2023-12-20T05:40:38;100130.28;;;-0.04;100.00
58757;BME280;44527;47.460;19.016;2023-12-20T05:43:41;100129.38;;;-0.02;100.00
58757;BME280;44527;47.460;19.016;2023-12-20T05:46:44;100124.47;;;-0.12;100.00
58757;BME280;44527;47.460;19.016;2023-12-20T05:49:48;100119.47;;;-0.18;100.00
58757;BME280;44527;47.460;19.016;2023-12-20T05:52:53;100108.06;;;-0.10;100.00
58757;BME280;44527;47.460;19.016;2023-12-20T05:56:02;100108.06;;;-0.10;100.00
58757;BME280;44527;47.460;19.016;2023-12-20T05:59:05;100091.19;;;0.11;100.00
58757;BME280;44527;47.460;19.016;2023-12-20T06:02:08;100081.50;;;0.19;100.00
58757;BME280;44527;47.460;19.016;2023-12-20T06:05:12;100086.50;;;-0.07;100.00
58757;BME280;44527;47.460;19.016;2023-12-20T06:08:16;100088.13;;;-0.03;100.00
58757;BME280;44527;47.460;19.016;2023-12-20T06:11:53;100079.19;;;0.09;100.00
58757;BME280;44527;47.460;19.016;2023-12-20T06:14:56;100075.38;;;-0.09;100.00
58757;BME280;44527;47.460;19.016;2023-12-20T06:18:00;100070.69;;;0.07;100.00
58757;BME280;44527;47.460;19.016;2023-12-20T06:21:07;100068.28;;;-0.01;100.00
58757;BME280;44527;47.460;19.016;2023-12-20T06:24:23;100059.91;;;-0.09;100.00
58757;BME280;44527;47.460;19.016;2023-12-20T06:27:30;100070.19;;;-0.08;100.00
58757;BME280;44527;47.460;19.016;2023-12-20T06:30:34;100063.47;;;-0.13;100.00
58757;BME280;44527;47.460;19.016;2023-12-20T06:33:38;100057.56;;;-0.18;100.00
58757;BME280;44527;47.460;19.016;2023-12-20T06:36:43;100074.59;;;-0.11;100.00
58757;BME280;44527;47.460;19.016;2023-12-20T06:39:46;100073.00;;;-0.17;100.00
58757;BME280;44527;47.460;19.016;2023-12-20T06:42:50;100085.69;;;-0.09;100.00
58757;BME280;44527;47.460;19.016;2023-12-20T06:46:08;100084.84;;;-0.08;100.00
58757;BME280;44527;47.460;19.016;2023-12-20T06:49:12;100094.78;;;-0.27;100.00
58757;BME280;44527;47.460;19.016;2023-12-20T06:52:15;100110.28;;;-0.29;100.00
58757;BME280;44527;47.460;19.016;2023-12-20T06:55:18;100120.72;;;-0.33;100.00
58757;BME280;44527;47.460;19.016;2023-12-20T06:58:21;100122.19;;;-0.23;100.00
58757;BME280;44527;47.460;19.016;2023-12-20T07:01:24;100121.09;;;-0.14;100.00
58757;BME280;44527;47.460;19.016;2023-12-20T07:04:27;100120.97;;;-0.10;100.00
58757;BME280;44527;47.460;19.016;2023-12-20T07:07:30;100128.03;;;-0.16;100.00
58757;BME280;44527;47.460;19.016;2023-12-20T07:10:33;100125.00;;;-0.32;100.00
58757;BME280;44527;47.460;19.016;2023-12-20T07:13:36;100127.38;;;-0.25;100.00
58757;BME280;44527;47.460;19.016;2023-12-20T07:16:40;100116.88;;;-0.18;100.00
58757;BME280;44527;47.460;19.016;2023-12-20T07:19:43;100110.12;;;-0.22;100.00
58757;BME280;44527;47.460;19.016;2023-12-20T07:22:45;100116.72;;;-0.11;100.00
58757;BME280;44527;47.460;19.016;2023-12-20T07:25:48;100118.16;;;-0.01;100.00
58757;BME280;44527;47.460;19.016;2023-12-20T07:28:51;100116.72;;;-0.11;100.00
58757;BME280;44527;47.460;19.016;2023-12-20T07:31:54;100120.66;;;-0.30;100.00
58757;BME280;44527;47.460;19.016;2023-12-20T07:34:57;100116.88;;;-0.17;100.00
58757;BME280;44527;47.460;19.016;2023-12-20T07:38:00;100111.87;;;0.10;100.00
58757;BME280;44527;47.460;19.016;2023-12-20T07:41:02;100114.06;;;-0.09;100.00
58757;BME280;44527;47.460;19.016;2023-12-20T07:44:06;100117.59;;;-0.12;100.00
58757;BME280;44527;47.460;19.016;2023-12-20T07:47:09;100119.72;;;0.05;100.00
58757;BME280;44527;47.460;19.016;2023-12-20T07:50:15;100115.53;;;0.34;100.00
58757;BME280;44527;47.460;19.016;2023-12-20T07:53:17;100118.47;;;0.20;100.00
58757;BME280;44527;47.460;19.016;2023-12-20T07:56:20;100111.72;;;0.47;100.00
58757;BME280;44527;47.460;19.016;2023-12-20T07:59:23;100101.31;;;0.49;100.00
58757;BME280;44527;47.460;19.016;2023-12-20T08:02:34;100101.94;;;0.58;100.00
58757;BME280;44527;47.460;19.016;2023-12-20T08:05:38;100090.19;;;0.76;100.00
58757;BME280;44527;47.460;19.016;2023-12-20T08:08:42;100090.56;;;0.34;100.00
58757;BME280;44527;47.460;19.016;2023-12-20T08:11:47;100083.47;;;0.41;100.00
58757;BME280;44527;47.460;19.016;2023-12-20T08:14:50;100088.22;;;0.56;100.00
58757;BME280;44527;47.460;19.016;2023-12-20T08:17:53;100082.41;;;0.48;100.00
58757;BME280;44527;47.460;19.016;2023-12-20T08:20:55;100088.94;;;0.61;100.00
58757;BME280;44527;47.460;19.016;2023-12-20T08:23:58;100085.25;;;0.68;100.00
58757;BME280;44527;47.460;19.016;2023-12-20T08:27:04;100096.50;;;0.67;100.00
58757;BME280;44527;47.460;19.016;2023-12-20T08:30:10;100093.63;;;0.47;100.00
58757;BME280;44527;47.460;19.016;2023-12-20T08:33:12;100102.53;;;0.66;100.00
58757;BME280;44527;47.460;19.016;2023-12-20T08:36:16;100093.38;;;0.56;100.00
58757;BME280;44527;47.460;19.016;2023-12-20T08:39:20;100092.84;;;0.75;100.00
58757;BME280;44527;47.460;19.016;2023-12-20T08:42:23;100104.34;;;0.93;100.00
58757;BME280;44527;47.460;19.016;2023-12-20T08:45:29;100095.94;;;0.86;100.00
58757;BME280;44527;47.460;19.016;2023-12-20T08:48:35;100103.53;;;0.90;100.00
58757;BME280;44527;47.460;19.016;2023-12-20T08:51:51;100100.59;;;1.03;100.00
58757;BME280;44527;47.460;19.016;2023-12-20T08:54:55;100102.19;;;1.07;100.00
58757;BME280;44527;47.460;19.016;2023-12-20T08:57:58;100106.88;;;1.22;100.00
58757;BME280;44527;47.460;19.016;2023-12-20T09:01:03;100109.94;;;1.35;100.00
58757;BME280;44527;47.460;19.016;2023-12-20T09:04:09;100103.50;;;1.20;100.00
58757;BME280;44527;47.460;19.016;2023-12-20T09:07:26;100104.19;;;1.25;100.00
58757;BME280;44527;47.460;19.016;2023-12-20T09:10:29;100111.47;;;1.14;100.00
58757;BME280;44527;47.460;19.016;2023-12-20T09:13:32;100104.53;;;0.86;100.00
58757;BME280;44527;47.460;19.016;2023-12-20T09:16:35;100102.94;;;1.10;100.00
58757;BME280;44527;47.460;19.016;2023-12-20T09:19:38;100099.03;;;0.97;100.00
58757;BME280;44527;47.460;19.016;2023-12-20T09:22:41;100097.81;;;1.09;100.00
58757;BME280;44527;47.460;19.016;2023-12-20T09:25:44;100095.50;;;1.28;100.00
58757;BME280;44527;47.460;19.016;2023-12-20T09:28:47;100092.84;;;1.56;100.00
58757;BME280;44527;47.460;19.016;2023-12-20T09:31:50;100085.69;;;1.64;100.00
58757;BME280;44527;47.460;19.016;2023-12-20T09:34:56;100082.41;;;1.59;100.00
58757;BME280;44527;47.460;19.016;2023-12-20T09:38:03;100073.59;;;1.90;100.00
58757;BME280;44527;47.460;19.016;2023-12-20T09:41:08;100062.31;;;1.92;100.00
58757;BME280;44527;47.460;19.016;2023-12-20T09:44:15;100060.31;;;1.50;100.00
58757;BME280;44527;47.460;19.016;2023-12-20T09:47:23;100069.00;;;1.48;100.00
58757;BME280;44527;47.460;19.016;2023-12-20T09:50:27;100047.06;;;1.59;100.00
58757;BME280;44527;47.460;19.016;2023-12-20T09:53:30;100040.94;;;2.11;100.00
58757;BME280;44527;47.460;19.016;2023-12-20T09:56:35;100044.09;;;2.19;100.00
58757;BME280;44527;47.460;19.016;2023-12-20T09:59:40;100040.22;;;2.07;100.00
58757;BME280;44527;47.460;19.016;2023-12-20T10:03:06;100026.22;;;2.36;100.00
58757;BME280;44527;47.460;19.016;2023-12-20T10:06:10;100033.06;;;2.14;100.00
58757;BME280;44527;47.460;19.016;2023-12-20T10:09:13;100032.00;;;2.19;100.00
58757;BME280;44527;47.460;19.016;2023-12-20T10:12:16;100025.34;;;2.36;100.00
58757;BME280;44527;47.460;19.016;2023-12-20T10:15:20;100026.56;;;2.72;100.00
58757;BME280;44527;47.460;19.016;2023-12-20T10:18:23;100012.22;;;2.64;100.00
58757;BME280;44527;47.460;19.016;2023-12-20T10:21:38;100013.41;;;2.55;100.00
58757;BME280;44527;47.460;19.016;2023-12-20T10:24:41;100024.50;;;2.59;100.00
58757;BME280;44527;47.460;19.016;2023-12-20T10:27:44;99994.47;;;2.75;100.00
58757;BME280;44527;47.460;19.016;2023-12-20T10:30:47;99987.97;;;2.65;100.00
58757;BME280;44527;47.460;19.016;2023-12-20T10:33:51;99984.81;;;2.35;100.00
58757;BME280;44527;47.460;19.016;2023-12-20T10:36:54;99974.09;;;2.22;100.00
58757;BME280;44527;47.460;19.016;2023-12-20T10:39:57;99979.88;;;2.28;100.00
58757;BME280;44527;47.460;19.016;2023-12-20T10:43:02;99970.47;;;2.26;100.00
58757;BME280;44527;47.460;19.016;2023-12-20T10:46:05;99962.66;;;2.27;100.00
58757;BME280;44527;47.460;19.016;2023-12-20T10:49:09;99968.94;;;2.44;100.00
58757;BME280;44527;47.460;19.016;2023-12-20T10:52:12;99965.25;;;2.27;100.00
58757;BME280;44527;47.460;19.016;2023-12-20T10:55:15;99965.94;;;2.55;100.00
58757;BME280;44527;47.460;19.016;2023-12-20T10:58:19;99960.88;;;2.51;100.00
58757;BME280;44527;47.460;19.016;2023-12-20T11:01:23;99952.63;;;2.64;100.00
58757;BME280;44527;47.460;19.016;2023-12-20T11:04:35;99955.94;;;2.67;100.00
58757;BME280;44527;47.460;19.016;2023-12-20T11:07:44;99948.88;;;2.71;100.00
58757;BME280;44527;47.460;19.016;2023-12-20T11:14:07;99936.00;;;2.90;100.00
58757;BME280;44527;47.460;19.016;2023-12-20T11:17:14;99928.62;;;3.01;100.00
58757;BME280;44527;47.460;19.016;2023-12-20T11:20:19;99917.87;;;3.10;100.00
58757;BME280;44527;47.460;19.016;2023-12-20T11:23:25;99909.06;;;3.14;100.00
58757;BME280;44527;47.460;19.016;2023-12-20T11:26:28;99904.09;;;3.10;100.00
58757;BME280;44527;47.460;19.016;2023-12-20T11:29:35;99883.97;;;3.15;100.00
58757;BME280;44527;47.460;19.016;2023-12-20T11:32:39;99872.78;;;3.33;100.00
58757;BME280;44527;47.460;19.016;2023-12-20T11:35:45;99868.34;;;3.37;100.00
58757;BME280;44527;47.460;19.016;2023-12-20T11:38:57;99867.56;;;3.54;100.00
58757;BME280;44527;47.460;19.016;2023-12-20T11:42:07;99866.88;;;3.69;100.00
58757;BME280;44527;47.460;19.016;2023-12-20T11:45:13;99861.97;;;3.63;100.00
58757;BME280;44527;47.460;19.016;2023-12-20T11:48:18;99877.91;;;3.74;100.00
58757;BME280;44527;47.460;19.016;2023-12-20T11:51:21;99872.34;;;3.82;100.00
58757;BME280;44527;47.460;19.016;2023-12-20T11:54:24;99865.22;;;3.87;100.00
58757;BME280;44527;47.460;19.016;2023-12-20T11:57:26;99865.88;;;4.09;100.00
58757;BME280;44527;47.460;19.016;2023-12-20T12:00:30;99868.41;;;4.30;100.00
58757;BME280;44527;47.460;19.016;2023-12-20T12:03:33;99865.53;;;4.53;100.00
58757;BME280;44527;47.460;19.016;2023-12-20T12:06:36;99859.19;;;4.76;100.00
58757;BME280;44527;47.460;19.016;2023-12-20T12:09:42;99842.66;;;4.95;100.00
58757;BME280;44527;47.460;19.016;2023-12-20T12:12:46;99854.88;;;5.27;100.00
58757;BME280;44527;47.460;19.016;2023-12-20T12:15:49;99842.66;;;5.45;100.00
58757;BME280;44527;47.460;19.016;2023-12-20T12:18:57;99849.78;;;5.91;100.00
58757;BME280;44527;47.460;19.016;2023-12-20T12:22:08;99831.91;;;6.47;100.00
58757;BME280;44527;47.460;19.016;2023-12-20T12:25:16;99846.13;;;7.16;99.13
58757;BME280;44527;47.460;19.016;2023-12-20T12:28:20;99846.63;;;7.51;97.86
58757;BME280;44527;47.460;19.016;2023-12-20T12:31:23;99862.00;;;7.70;95.92
58757;BME280;44527;47.460;19.016;2023-12-20T12:34:30;99866.19;;;7.72;95.03
58757;BME280;44527;47.460;19.016;2023-12-20T12:37:40;99860.97;;;7.72;94.74
58757;BME280;44527;47.460;19.016;2023-12-20T12:40:43;99866.66;;;7.79;93.78
58757;BME280;44527;47.460;19.016;2023-12-20T12:43:46;99848.94;;;7.84;93.14
58757;BME280;44527;47.460;19.016;2023-12-20T12:46:48;99841.81;;;7.86;93.62
58757;BME280;44527;47.460;19.016;2023-12-20T12:49:53;99859.47;;;7.68;93.16
58757;BME280;44527;47.460;19.016;2023-12-20T12:52:56;99863.59;;;7.58;93.46
58757;BME280;44527;47.460;19.016;2023-12-20T12:56:00;99866.94;;;7.60;93.78
58757;BME280;44527;47.460;19.016;2023-12-20T12:59:03;99859.38;;;7.55;92.19
58757;BME280;44527;47.460;19.016;2023-12-20T13:02:05;99857.06;;;7.51;93.13
58757;BME280;44527;47.460;19.016;2023-12-20T13:05:08;99854.25;;;7.40;93.24
58757;BME280;44527;47.460;19.016;2023-12-20T13:08:11;99844.56;;;7.27;93.15
58757;BME280;44527;47.460;19.016;2023-12-20T13:11:17;99863.13;;;7.23;93.05
58757;BME280;44527;47.460;19.016;2023-12-20T13:14:21;99859.19;;;7.30;92.90
58757;BME280;44527;47.460;19.016;2023-12-20T13:17:24;99851.28;;;7.17;92.91
58757;BME280;44527;47.460;19.016;2023-12-20T13:20:26;99857.28;;;7.03;92.89
58757;BME280;44527;47.460;19.016;2023-12-20T13:23:29;99848.87;;;6.84;93.69
58757;BME280;44527;47.460;19.016;2023-12-20T13:26:31;99841.72;;;6.87;93.65
58757;BME280;44527;47.460;19.016;2023-12-20T13:29:36;99845.41;;;6.69;95.15
58757;BME280;44527;47.460;19.016;2023-12-20T13:32:41;99843.91;;;6.65;95.55
58757;BME280;44527;47.460;19.016;2023-12-20T13:35:44;99839.06;;;6.73;95.83
58757;BME280;44527;47.460;19.016;2023-12-20T13:38:46;99835.91;;;6.68;95.07
58757;BME280;44527;47.460;19.016;2023-12-20T13:41:49;99837.38;;;6.72;95.31
58757;BME280;44527;47.460;19.016;2023-12-20T13:44:52;99851.06;;;6.61;94.96
58757;BME280;44527;47.460;19.016;2023-12-20T13:47:54;99844.50;;;6.54;95.18
58757;BME280;44527;47.460;19.016;2023-12-20T13:50:57;99848.97;;;6.52;95.33
58757;BME280;44527;47.460;19.016;2023-12-20T13:53:59;99849.75;;;6.38;96.54
58757;BME280;44527;47.460;19.016;2023-12-20T13:57:01;99838.63;;;6.51;96.17
58757;BME280;44527;47.460;19.016;2023-12-20T14:00:18;99845.78;;;6.47;96.33
58757;BME280;44527;47.460;19.016;2023-12-20T14:03:23;99833.50;;;6.49;96.99
58757;BME280;44527;47.460;19.016;2023-12-20T14:06:28;99840.47;;;6.49;97.04
58757;BME280;44527;47.460;19.016;2023-12-20T14:09:31;99850.41;;;6.42;97.41
58757;BME280;44527;47.460;19.016;2023-12-20T14:12:35;99854.97;;;6.38;98.04
58757;BME280;44527;47.460;19.016;2023-12-20T14:15:40;99865.88;;;6.45;98.06
58757;BME280;44527;47.460;19.016;2023-12-20T14:18:42;99864.81;;;6.49;96.61
58757;BME280;44527;47.460;19.016;2023-12-20T14:21:45;99868.75;;;6.40;96.81
58757;BME280;44527;47.460;19.016;2023-12-20T14:24:51;99863.22;;;6.15;98.18
58757;BME280;44527;47.460;19.016;2023-12-20T14:27:54;99848.69;;;5.95;99.32
58757;BME280;44527;47.460;19.016;2023-12-20T14:30:57;99853.91;;;5.95;99.21
58757;BME280;44527;47.460;19.016;2023-12-20T14:34:00;99856.66;;;5.76;99.16
58757;BME280;44527;47.460;19.016;2023-12-20T14:37:05;99862.97;;;5.39;100.00
58757;BME280;44527;47.460;19.016;2023-12-20T14:40:09;99856.91;;;5.38;100.00
58757;BME280;44527;47.460;19.016;2023-12-20T14:43:17;99866.28;;;5.25;100.00
58757;BME280;44527;47.460;19.016;2023-12-20T14:46:20;99880.78;;;5.29;100.00
58757;BME280;44527;47.460;19.016;2023-12-20T14:49:22;99876.88;;;5.38;100.00
58757;BME280;44527;47.460;19.016;2023-12-20T14:52:25;99870.84;;;5.37;100.00
58757;BME280;44527;47.460;19.016;2023-12-20T14:55:28;99869.84;;;5.40;100.00
58757;BME280;44527;47.460;19.016;2023-12-20T14:58:32;99884.34;;;5.28;100.00
58757;BME280;44527;47.460;19.016;2023-12-20T15:01:36;99875.06;;;5.22;100.00
58757;BME280;44527;47.460;19.016;2023-12-20T15:04:38;99889.69;;;5.25;100.00
58757;BME280;44527;47.460;19.016;2023-12-20T15:07:41;99898.81;;;5.16;100.00
58757;BME280;44527;47.460;19.016;2023-12-20T15:10:44;99905.97;;;5.28;100.00
58757;BME280;44527;47.460;19.016;2023-12-20T15:13:46;99900.94;;;5.25;100.00
58757;BME280;44527;47.460;19.016;2023-12-20T15:16:56;99901.47;;;5.32;100.00
58757;BME280;44527;47.460;19.016;2023-12-20T15:19:59;99903.38;;;5.28;100.00
58757;BME280;44527;47.460;19.016;2023-12-20T15:23:02;99910.97;;;5.16;100.00
58757;BME280;44527;47.460;19.016;2023-12-20T15:26:10;99927.56;;;5.30;100.00
58757;BME280;44527;47.460;19.016;2023-12-20T15:29:13;99920.06;;;5.42;100.00
58757;BME280;44527;47.460;19.016;2023-12-20T15:32:18;99928.75;;;5.58;100.00
58757;BME280;44527;47.460;19.016;2023-12-20T15:35:21;99928.28;;;5.67;100.00
58757;BME280;44527;47.460;19.016;2023-12-20T15:38:24;99918.47;;;5.72;100.00
58757;BME280;44527;47.460;19.016;2023-12-20T15:41:30;99926.84;;;5.78;100.00
58757;BME280;44527;47.460;19.016;2023-12-20T15:44:32;99929.41;;;5.79;100.00
58757;BME280;44527;47.460;19.016;2023-12-20T15:47:36;99942.41;;;5.79;100.00
58757;BME280;44527;47.460;19.016;2023-12-20T15:50:41;99934.50;;;5.81;100.00
58757;BME280;44527;47.460;19.016;2023-12-20T15:53:46;99923.19;;;5.82;100.00
58757;BME280;44527;47.460;19.016;2023-12-20T15:56:48;99936.78;;;5.87;100.00
58757;BME280;44527;47.460;19.016;2023-12-20T15:59:51;99928.97;;;5.87;100.00
58757;BME280;44527;47.460;19.016;2023-12-20T16:02:54;99944.31;;;5.93;99.97
58757;BME280;44527;47.460;19.016;2023-12-20T16:05:56;99947.22;;;5.87;100.00
58757;BME280;44527;47.460;19.016;2023-12-20T16:09:01;99962.00;;;5.86;99.94
58757;BME280;44527;47.460;19.016;2023-12-20T16:12:04;99958.13;;;5.78;100.00
58757;BME280;44527;47.460;19.016;2023-12-20T16:15:07;99951.91;;;5.80;100.00
58757;BME280;44527;47.460;19.016;2023-12-20T16:18:10;99954.94;;;5.72;100.00
58757;BME280;44527;47.460;19.016;2023-12-20T16:21:13;99954.38;;;5.66;100.00
58757;BME280;44527;47.460;19.016;2023-12-20T16:24:16;99964.38;;;5.40;100.00
58757;BME280;44527;47.460;19.016;2023-12-20T16:27:18;99958.09;;;5.44;100.00
58757;BME280;44527;47.460;19.016;2023-12-20T16:30:21;99964.47;;;5.39;100.00
58757;BME280;44527;47.460;19.016;2023-12-20T16:33:23;99960.56;;;5.30;100.00
58757;BME280;44527;47.460;19.016;2023-12-20T16:36:49;99968.84;;;5.21;100.00
58757;BME280;44527;47.460;19.016;2023-12-20T16:39:53;99945.63;;;5.16;100.00
58757;BME280;44527;47.460;19.016;2023-12-20T16:42:56;99952.91;;;5.10;100.00
58757;BME280;44527;47.460;19.016;2023-12-20T16:45:58;99968.41;;;5.11;100.00
58757;BME280;44527;47.460;19.016;2023-12-20T16:49:04;99967.53;;;5.12;100.00
58757;BME280;44527;47.460;19.016;2023-12-20T16:52:06;99973.19;;;5.03;100.00
58757;BME280;44527;47.460;19.016;2023-12-20T16:55:10;99986.19;;;5.03;100.00
58757;BME280;44527;47.460;19.016;2023-12-20T16:58:13;99994.34;;;4.95;100.00
58757;BME280;44527;47.460;19.016;2023-12-20T17:01:16;99993.25;;;4.82;100.00
58757;BME280;44527;47.460;19.016;2023-12-20T17:04:19;100003.25;;;4.72;100.00
58757;BME280;44527;47.460;19.016;2023-12-20T17:07:24;100002.41;;;4.72;100.00
58757;BME280;44527;47.460;19.016;2023-12-20T17:10:26;100002.38;;;4.54;100.00
58757;BME280;44527;47.460;19.016;2023-12-20T17:13:29;100006.91;;;4.49;100.00
58757;BME280;44527;47.460;19.016;2023-12-20T17:16:33;99998.50;;;4.44;100.00
58757;BME280;44527;47.460;19.016;2023-12-20T17:19:36;100002.94;;;4.42;100.00
58757;BME280;44527;47.460;19.016;2023-12-20T17:22:38;100004.28;;;4.32;100.00
58757;BME280;44527;47.460;19.016;2023-12-20T17:25:41;100015.78;;;4.45;100.00
58757;BME280;44527;47.460;19.016;2023-12-20T17:28:44;100014.44;;;4.36;100.00
58757;BME280;44527;47.460;19.016;2023-12-20T17:31:47;100010.31;;;4.32;100.00
58757;BME280;44527;47.460;19.016;2023-12-20T17:34:49;100016.06;;;4.20;100.00
58757;BME280;44527;47.460;19.016;2023-12-20T17:37:52;100014.75;;;4.10;100.00
58757;BME280;44527;47.460;19.016;2023-12-20T17:40:55;100021.50;;;3.95;100.00
58757;BME280;44527;47.460;19.016;2023-12-20T17:43:58;100020.97;;;3.87;100.00
58757;BME280;44527;47.460;19.016;2023-12-20T17:47:01;100034.81;;;3.67;100.00